createdAt,value
2018-09-17T00:01:58.995Z,6.20
2018-09-17T00:04:27.059Z,5.77
2018-09-17T00:06:55.118Z,5.70
2018-09-17T00:09:23.231Z,6.33
2018-09-17T00:11:51.296Z,6.10
2018-09-17T00:14:19.372Z,5.83
2018-09-17T00:16:47.440Z,5.63
2018-09-17T00:19:15.516Z,5.73
2018-09-17T00:21:43.568Z,5.50
2018-09-17T00:24:11.636Z,6.00
2018-09-17T00:26:39.692Z,7.50
2018-09-17T00:29:07.747Z,6.80
2018-09-17T00:31:35.804Z,6.50
2018-09-17T00:34:03.870Z,5.70
2018-09-17T00:36:31.929Z,5.80
2018-09-17T00:38:59.980Z,5.80
2018-09-17T00:41:28.039Z,6.43
2018-09-17T00:43:56.232Z,6.10
2018-09-17T00:46:24.315Z,5.97
2018-09-17T00:48:52.359Z,6.43
2018-09-17T00:51:20.814Z,5.53
2018-09-17T00:53:48.871Z,6.27
2018-09-17T00:56:16.930Z,6.80
2018-09-17T00:58:44.972Z,5.70
2018-09-17T01:01:13.044Z,5.30
2018-09-17T01:03:41.233Z,5.57
2018-09-17T01:06:09.286Z,5.77
2018-09-17T01:08:37.324Z,5.33
2018-09-17T01:11:05.410Z,5.30
2018-09-17T01:13:33.462Z,5.57
2018-09-17T01:16:01.504Z,5.50
2018-09-17T01:18:29.597Z,4.90
2018-09-17T01:20:57.675Z,5.37
2018-09-17T01:23:25.731Z,6.10
2018-09-17T01:25:53.793Z,5.00
2018-09-17T01:28:21.861Z,5.37
2018-09-17T01:30:50.081Z,6.07
2018-09-17T01:33:18.127Z,5.50
2018-09-17T01:35:46.192Z,5.37
2018-09-17T01:38:14.248Z,5.20
2018-09-17T01:40:42.341Z,4.70
2018-09-17T01:43:10.499Z,5.27
2018-09-17T01:45:38.575Z,4.90
2018-09-17T01:48:06.630Z,5.50
2018-09-17T01:50:34.694Z,5.37
2018-09-17T01:53:02.752Z,5.60
2018-09-17T01:55:30.865Z,5.57
2018-09-17T01:57:59.048Z,5.73
2018-09-17T02:00:27.107Z,5.30
2018-09-17T02:02:55.170Z,5.90
2018-09-17T02:05:23.236Z,5.73
2018-09-17T02:07:51.299Z,6.20
2018-09-17T02:10:19.376Z,5.50
2018-09-17T02:12:47.447Z,5.33
2018-09-17T02:15:15.512Z,5.43
2018-09-17T02:17:43.583Z,5.50
2018-09-17T02:20:11.665Z,5.50
2018-09-17T02:22:39.720Z,5.67
2018-09-17T02:25:07.796Z,6.33
2018-09-17T02:27:35.880Z,5.80
2018-09-17T02:30:03.955Z,5.63
2018-09-17T02:32:32.047Z,5.33
2018-09-17T02:35:00.123Z,5.37
2018-09-17T02:37:29.229Z,5.60
2018-09-17T02:39:57.351Z,5.73
2018-09-17T02:42:25.436Z,5.17
2018-09-17T02:44:53.508Z,5.13
2018-09-17T02:47:21.580Z,4.97
2018-09-17T02:49:49.648Z,5.50
2018-09-17T02:52:17.736Z,5.20
2018-09-17T02:54:45.787Z,5.20
2018-09-17T02:57:13.840Z,4.87
2018-09-17T02:59:41.912Z,5.13
2018-09-17T03:02:09.985Z,5.40
2018-09-17T03:04:38.107Z,6.00
2018-09-17T03:07:06.155Z,6.43
2018-09-17T03:09:34.225Z,6.00
2018-09-17T03:12:02.326Z,6.27
2018-09-17T03:14:30.798Z,5.90
2018-09-17T03:17:12.511Z,5.27
2018-09-17T03:19:46.978Z,5.10
2018-09-17T03:22:15.604Z,5.53
2018-09-17T03:24:43.670Z,5.33
2018-09-17T03:27:11.764Z,5.20
2018-09-17T03:29:39.876Z,4.70
2018-09-17T03:32:07.949Z,5.17
2018-09-17T03:34:36.012Z,5.83
2018-09-17T03:37:04.107Z,5.43
2018-09-17T03:39:32.177Z,5.60
2018-09-17T03:42:00.298Z,5.13
2018-09-17T03:44:28.404Z,4.70
2018-09-17T03:46:56.543Z,5.20
2018-09-17T03:49:24.729Z,5.77
2018-09-17T03:51:53.130Z,6.07
2018-09-17T03:54:21.184Z,6.10
2018-09-17T03:56:49.270Z,6.17
2018-09-17T03:59:17.323Z,6.37
2018-09-17T04:01:45.435Z,5.73
2018-09-17T04:04:13.520Z,5.43
2018-09-17T04:06:41.623Z,6.33
2018-09-17T04:09:09.801Z,5.50
2018-09-17T04:11:37.851Z,5.47
2018-09-17T04:14:07.379Z,5.93
2018-09-17T04:16:35.479Z,6.73
2018-09-17T04:19:03.551Z,5.87
2018-09-17T04:21:31.640Z,5.70
2018-09-17T04:23:59.742Z,5.70
2018-09-17T04:26:27.876Z,5.80
2018-09-17T04:28:55.955Z,6.13
2018-09-17T04:31:24.112Z,6.17
2018-09-17T04:33:52.144Z,6.00
2018-09-17T04:36:20.232Z,6.37
2018-09-17T04:38:48.363Z,6.20
2018-09-17T04:41:16.446Z,6.37
2018-09-17T04:43:44.563Z,5.90
2018-09-17T04:46:12.664Z,5.77
2018-09-17T04:48:40.764Z,6.43
2018-09-17T04:51:08.856Z,6.47
2018-09-17T04:53:36.964Z,6.27
2018-09-17T04:56:05.104Z,5.93
2018-09-17T04:58:33.184Z,5.80
2018-09-17T05:01:01.315Z,6.03
2018-09-17T05:03:29.408Z,5.50
2018-09-17T05:05:57.472Z,5.00
2018-09-17T05:08:25.544Z,6.37
2018-09-17T05:10:53.692Z,5.90
2018-09-17T05:13:22.160Z,6.00
2018-09-17T05:15:50.081Z,5.80
2018-09-17T05:18:18.184Z,6.40
2018-09-17T05:20:46.415Z,6.33
2018-09-17T05:23:14.416Z,4.97
2018-09-17T05:25:42.575Z,5.57
2018-09-17T05:28:10.659Z,5.23
2018-09-17T05:30:38.724Z,5.10
2018-09-17T05:33:06.891Z,5.70
2018-09-17T05:35:34.953Z,5.80
2018-09-17T05:38:03.039Z,4.80
2018-09-17T05:40:31.196Z,5.40
2018-09-17T05:42:59.332Z,6.00
2018-09-17T05:45:27.430Z,6.80
2018-09-17T05:47:55.638Z,5.93
2018-09-17T05:50:23.724Z,6.30
2018-09-17T05:52:51.893Z,6.03
2018-09-17T05:55:19.970Z,6.40
2018-09-17T05:57:48.070Z,6.50
2018-09-17T06:00:16.180Z,5.73
2018-09-17T06:02:44.316Z,5.70
2018-09-17T06:05:12.818Z,6.20
2018-09-17T06:07:40.940Z,5.83
2018-09-17T06:10:14.115Z,6.27
2018-09-17T06:12:42.889Z,5.40
2018-09-17T06:15:10.987Z,4.97
2018-09-17T06:17:39.100Z,5.23
2018-09-17T06:20:07.271Z,6.40
2018-09-17T06:22:35.396Z,6.07
2018-09-17T06:25:03.840Z,6.50
2018-09-17T06:27:31.943Z,6.53
2018-09-17T06:30:00.146Z,6.80
2018-09-17T06:32:28.212Z,6.27
2018-09-17T06:34:56.755Z,6.37
2018-09-17T06:37:24.929Z,6.77
2018-09-17T06:39:53.053Z,6.47
2018-09-17T06:42:21.160Z,6.20
2018-09-17T06:44:49.279Z,6.93
2018-09-17T06:47:17.458Z,5.67
2018-09-17T06:49:45.576Z,6.00
2018-09-17T06:52:13.651Z,6.13
2018-09-17T06:54:42.209Z,5.87
2018-09-17T06:57:10.389Z,6.27
2018-09-17T06:59:38.548Z,6.40
2018-09-17T07:02:06.983Z,5.63
2018-09-17T07:04:35.093Z,5.60
2018-09-17T07:07:03.199Z,5.70
2018-09-17T07:09:31.296Z,5.85
2018-09-17T07:11:59.415Z,5.62
2018-09-17T07:14:27.627Z,5.07
2018-09-17T07:16:55.721Z,5.67
2018-09-17T07:19:23.885Z,6.20
2018-09-17T07:21:52.013Z,6.08
2018-09-17T07:24:20.329Z,5.17
2018-09-17T07:26:48.412Z,6.10
2018-09-17T07:29:16.519Z,5.90
2018-09-17T07:31:44.618Z,5.60
2018-09-17T07:34:12.728Z,5.97
2018-09-17T07:36:40.859Z,5.58
2018-09-17T07:39:10.616Z,5.87
2018-09-17T07:41:38.832Z,6.00
2018-09-17T07:44:06.938Z,5.75
2018-09-17T07:46:35.231Z,6.30
2018-09-17T07:49:03.464Z,7.12
2018-09-17T07:51:31.576Z,6.15
2018-09-17T07:54:06.098Z,5.20
2018-09-17T07:56:34.239Z,6.12
2018-09-17T07:59:02.427Z,6.62
2018-09-17T08:01:30.635Z,5.53
2018-09-17T08:03:58.727Z,5.62
2018-09-17T08:06:26.858Z,5.60
2018-09-17T08:08:54.965Z,5.83
2018-09-17T08:11:23.098Z,5.67
2018-09-17T08:13:51.182Z,5.12
2018-09-17T08:16:19.292Z,5.58
2018-09-17T08:18:47.391Z,5.97
2018-09-17T08:21:15.550Z,5.47
2018-09-17T08:23:43.867Z,5.95
2018-09-17T08:26:11.952Z,5.80
2018-09-17T08:28:40.095Z,7.03
2018-09-17T08:31:08.377Z,6.25
2018-09-17T08:33:37.006Z,6.53
2018-09-17T08:36:10.349Z,6.55
2018-09-17T08:38:38.438Z,6.72
2018-09-17T08:41:06.597Z,5.70
2018-09-17T08:43:35.390Z,5.85
2018-09-17T08:46:03.481Z,6.83
2018-09-17T08:48:31.560Z,5.50
2018-09-17T08:50:59.752Z,6.60
2018-09-17T08:53:27.804Z,5.80
2018-09-17T08:56:00.602Z,5.67
2018-09-17T08:58:39.380Z,5.40
2018-09-17T09:02:12.368Z,5.12
2018-09-17T09:04:47.237Z,5.20
2018-09-17T09:07:22.382Z,5.58
2018-09-17T09:09:51.686Z,5.25
2018-09-17T09:12:25.407Z,5.08
2018-09-17T09:15:02.639Z,4.75
2018-09-17T09:17:30.779Z,4.78
2018-09-17T09:19:58.869Z,5.58
2018-09-17T09:22:26.976Z,5.12
2018-09-17T09:24:55.060Z,5.00
2018-09-17T09:27:23.164Z,5.60
2018-09-17T09:29:51.281Z,5.28
2018-09-17T09:32:19.424Z,5.55
2018-09-17T09:34:50.643Z,4.47
2018-09-17T09:37:18.741Z,5.25
2018-09-17T09:39:50.258Z,5.30
2018-09-17T09:42:19.449Z,5.03
2018-09-17T09:44:47.607Z,5.03
2018-09-17T09:47:15.779Z,5.80
2018-09-17T09:49:44.063Z,5.15
2018-09-17T09:52:12.256Z,5.05
2018-09-17T09:54:40.491Z,4.50
2018-09-17T09:57:08.614Z,4.53
2018-09-17T09:59:38.364Z,4.40
2018-09-17T10:02:12.502Z,4.67
2018-09-17T10:04:40.914Z,4.80
2018-09-17T10:07:09.145Z,5.50
2018-09-17T10:09:42.642Z,4.28
2018-09-17T10:12:19.543Z,4.60
2018-09-17T10:14:52.930Z,4.58
2018-09-17T10:17:26.360Z,5.20
2018-09-17T10:19:54.518Z,5.08
2018-09-17T10:22:22.685Z,5.12
2018-09-17T10:24:50.835Z,4.75
2018-09-17T10:27:19.273Z,4.97
2018-09-17T10:29:47.450Z,4.47
2018-09-17T10:32:15.690Z,4.42
2018-09-17T10:34:43.790Z,4.30
2018-09-17T10:37:12.161Z,5.22
2018-09-17T10:39:40.365Z,4.58
2018-09-17T10:42:08.509Z,5.15
2018-09-17T10:44:37.169Z,4.92
2018-09-17T10:47:05.360Z,5.33
2018-09-17T10:49:33.436Z,5.20
2018-09-17T10:52:01.508Z,5.20
2018-09-17T10:57:11.522Z,4.45
2018-09-17T10:59:39.624Z,4.42
2018-09-17T11:02:07.874Z,5.05
2018-09-17T11:04:36.219Z,5.33
2018-09-17T11:07:04.651Z,5.05
2018-09-17T11:09:32.820Z,5.90
2018-09-17T11:12:01.000Z,5.83
2018-09-17T11:14:29.186Z,5.70
2018-09-17T11:16:57.462Z,5.83
2018-09-17T11:19:25.625Z,6.22
2018-09-17T11:21:53.752Z,6.20
2018-09-17T11:24:22.015Z,6.58
2018-09-17T11:26:50.229Z,5.78
2018-09-17T11:29:21.725Z,5.60
2018-09-17T11:31:50.508Z,5.75
2018-09-17T11:34:18.641Z,5.62
2018-09-17T11:39:28.667Z,6.28
2018-09-17T11:41:56.810Z,6.55
2018-09-17T11:44:25.005Z,6.20
2018-09-17T11:46:53.094Z,6.10
2018-09-17T11:49:21.228Z,5.67
2018-09-17T11:51:49.373Z,6.50
2018-09-17T11:54:17.464Z,6.10
2018-09-17T11:56:45.560Z,6.03
2018-09-17T11:59:13.696Z,5.70
2018-09-17T12:01:47.248Z,5.45
2018-09-17T12:04:16.935Z,5.22
2018-09-17T12:06:50.304Z,5.60
2018-09-17T12:09:18.409Z,6.42
2018-09-17T12:11:46.558Z,6.53
2018-09-17T12:14:14.724Z,5.78
2018-09-17T12:16:42.847Z,5.65
2018-09-17T12:19:10.959Z,5.60
2018-09-17T12:21:39.168Z,5.35
2018-09-17T12:24:07.270Z,5.60
2018-09-17T12:26:35.390Z,5.60
2018-09-17T12:29:03.476Z,5.47
2018-09-17T12:31:31.599Z,5.75
2018-09-17T12:33:59.767Z,5.60
2018-09-17T12:36:27.892Z,5.50
2018-09-17T12:39:01.842Z,4.70
2018-09-17T12:41:31.789Z,4.90
2018-09-17T12:44:01.181Z,5.12
2018-09-17T12:46:29.283Z,5.45
2018-09-17T12:48:57.432Z,5.37
2018-09-17T12:51:25.560Z,5.47
2018-09-17T12:53:53.829Z,5.03
2018-09-17T12:56:22.116Z,5.50
2018-09-17T12:58:53.620Z,7.17
2018-09-17T13:01:21.752Z,6.45
2018-09-17T13:03:49.867Z,5.62
2018-09-17T13:06:18.290Z,5.35
2018-09-17T13:08:46.389Z,5.45
2018-09-17T13:11:14.533Z,5.60
2018-09-17T13:13:42.618Z,5.80
2018-09-17T13:16:11.440Z,6.05
2018-09-17T13:18:39.534Z,6.22
2018-09-17T13:21:07.763Z,6.30
2018-09-17T13:23:35.896Z,6.62
2018-09-17T13:26:05.051Z,6.20
2018-09-17T13:28:35.745Z,6.12
2018-09-17T13:31:04.446Z,6.90
2018-09-17T13:33:32.740Z,6.00
2018-09-17T13:36:04.198Z,6.20
2018-09-17T13:38:33.222Z,5.95
2018-09-17T13:41:01.540Z,5.97
2018-09-17T13:43:29.672Z,6.17
2018-09-17T13:46:00.507Z,5.90
2018-09-17T13:48:32.915Z,6.30
2018-09-17T13:51:01.520Z,5.40
2018-09-17T13:53:29.933Z,5.78
2018-09-17T13:55:58.657Z,6.28
2018-09-17T13:58:28.746Z,5.75
2018-09-17T14:00:56.876Z,5.85
2018-09-17T14:03:24.997Z,6.22
2018-09-17T14:05:55.126Z,5.05
2018-09-17T14:08:23.268Z,5.60
2018-09-17T14:10:52.112Z,4.97
2018-09-17T14:13:21.655Z,5.45
2018-09-17T14:15:55.268Z,5.15
2018-09-17T14:18:27.794Z,6.17
2018-09-17T14:20:55.906Z,4.95
2018-09-17T14:23:24.027Z,5.22
2018-09-17T14:25:53.475Z,5.22
2018-09-17T14:28:22.659Z,4.80
2018-09-17T14:30:52.545Z,4.60
2018-09-17T14:33:28.145Z,4.17
2018-09-17T14:35:56.303Z,3.98
2018-09-17T14:38:25.003Z,4.28
2018-09-17T14:40:53.432Z,3.75
2018-09-17T14:43:21.560Z,4.20
2018-09-17T14:45:49.867Z,3.95
2018-09-17T14:48:18.192Z,3.27
2018-09-17T14:50:46.301Z,4.30
2018-09-17T14:53:14.429Z,3.77
2018-09-17T14:55:42.580Z,4.45
2018-09-17T14:58:11.157Z,4.25
2018-09-17T15:00:39.248Z,4.05
2018-09-17T15:03:07.443Z,4.97
2018-09-17T15:05:35.585Z,4.65
2018-09-17T15:08:03.830Z,4.60
2018-09-17T15:10:32.031Z,4.37
2018-09-17T15:13:00.061Z,4.47
2018-09-17T15:15:28.576Z,4.22
2018-09-17T15:17:56.908Z,3.42
2018-09-17T15:20:25.217Z,4.12
2018-09-17T15:22:53.264Z,4.05
2018-09-17T15:25:21.385Z,4.20
2018-09-17T15:27:49.683Z,4.30
2018-09-17T15:30:17.795Z,3.72
2018-09-17T15:32:45.926Z,3.80
2018-09-17T15:35:14.084Z,4.00
2018-09-17T15:37:42.319Z,3.30
2018-09-17T15:40:10.726Z,3.30
2018-09-17T15:42:38.945Z,3.10
2018-09-17T15:45:07.068Z,3.35
2018-09-17T15:47:35.179Z,3.52
2018-09-17T15:50:03.376Z,3.58
2018-09-17T15:52:31.569Z,3.70
2018-09-17T15:54:59.772Z,3.50
2018-09-17T15:57:27.888Z,3.42
2018-09-17T15:59:56.025Z,3.60
2018-09-17T16:02:24.220Z,3.02
2018-09-17T16:04:52.397Z,3.02
2018-09-17T16:07:20.634Z,3.17
2018-09-17T16:09:48.833Z,3.00
2018-09-17T16:12:17.064Z,3.50
2018-09-17T16:14:45.334Z,3.47
2018-09-17T16:17:13.536Z,3.20
2018-09-17T16:19:41.689Z,3.33
2018-09-17T16:22:09.799Z,3.30
2018-09-17T16:24:37.934Z,3.30
2018-09-17T16:27:06.020Z,2.95
2018-09-17T16:29:34.240Z,2.72
2018-09-17T16:32:02.358Z,2.95
2018-09-17T16:34:30.451Z,2.87
2018-09-17T16:36:58.536Z,3.30
2018-09-17T16:39:26.658Z,3.00
2018-09-17T16:41:54.827Z,2.98
2018-09-17T16:44:22.916Z,3.20
2018-09-17T16:46:51.230Z,3.15
2018-09-17T16:49:19.369Z,3.65
2018-09-17T16:51:47.624Z,3.87
2018-09-17T16:54:15.761Z,3.15
2018-09-17T16:56:43.950Z,3.75
2018-09-17T16:59:12.063Z,3.20
2018-09-17T17:01:40.157Z,3.40
2018-09-17T17:04:08.401Z,3.60
2018-09-17T17:06:36.497Z,3.58
2018-09-17T17:09:07.054Z,3.77
2018-09-17T17:11:35.147Z,3.47
2018-09-17T17:14:03.269Z,3.60
2018-09-17T17:16:31.523Z,4.05
2018-09-17T17:18:59.918Z,3.72
2018-09-17T17:21:28.107Z,3.58
2018-09-17T17:23:56.303Z,3.65
2018-09-17T17:26:24.432Z,3.92
2018-09-17T17:28:52.593Z,4.20
2018-09-17T17:31:20.716Z,3.67
2018-09-17T17:33:49.015Z,3.60
2018-09-17T17:36:17.132Z,3.37
2018-09-17T17:38:45.218Z,4.10
2018-09-17T17:41:13.324Z,3.85
2018-09-17T17:43:41.488Z,3.60
2018-09-17T17:46:09.716Z,3.85
2018-09-17T17:48:37.732Z,5.12
2018-09-17T17:51:06.337Z,3.80
2018-09-17T17:53:34.545Z,5.30
2018-09-17T17:56:02.647Z,5.08
2018-09-17T17:58:30.755Z,4.90
2018-09-17T18:00:58.994Z,4.60
2018-09-17T18:03:27.119Z,4.60
2018-09-17T18:05:55.232Z,4.17
2018-09-17T18:08:23.354Z,4.05
2018-09-17T18:10:51.770Z,4.05
2018-09-17T18:13:19.861Z,4.90
2018-09-17T18:15:48.168Z,4.90
2018-09-17T18:18:16.309Z,5.05
2018-09-17T18:20:44.463Z,4.28
2018-09-17T18:23:12.595Z,4.87
2018-09-17T18:25:40.755Z,4.65
2018-09-17T18:28:08.862Z,5.92
2018-09-17T18:30:36.984Z,4.70
2018-09-17T18:33:05.133Z,4.50
2018-09-17T18:35:33.279Z,4.12
2018-09-17T18:38:01.522Z,5.08
2018-09-17T18:40:29.638Z,4.92
2018-09-17T18:42:57.866Z,4.37
2018-09-17T18:45:25.996Z,5.25
2018-09-17T18:47:54.834Z,4.83
2018-09-17T18:50:23.085Z,5.15
2018-09-17T18:52:51.172Z,4.40
2018-09-17T18:55:19.277Z,5.05
2018-09-17T18:57:47.381Z,5.70
2018-09-17T19:00:15.535Z,5.22
2018-09-17T19:02:43.606Z,5.40
2018-09-17T19:05:11.734Z,5.30
2018-09-17T19:07:39.801Z,4.80
2018-09-17T19:10:07.928Z,5.28
2018-09-17T19:12:36.078Z,5.22
2018-09-17T19:15:09.583Z,4.97
2018-09-17T19:17:42.077Z,5.70
2018-09-17T19:20:11.485Z,5.75
2018-09-17T19:22:44.850Z,5.77
2018-09-17T19:25:14.972Z,6.60
2018-09-17T19:27:48.346Z,6.60
2018-09-17T19:30:17.011Z,5.42
2018-09-17T19:32:45.385Z,6.37
2018-09-17T19:35:13.745Z,6.17
2018-09-17T19:37:47.233Z,6.35
2018-09-17T19:40:17.786Z,5.73
2018-09-17T19:42:47.074Z,5.70
2018-09-17T19:45:20.676Z,5.93
2018-09-17T19:47:49.528Z,5.63
2018-09-17T19:50:22.920Z,5.37
2018-09-17T19:52:50.939Z,6.90
2018-09-17T19:55:19.074Z,6.80
2018-09-17T19:57:52.642Z,7.67
2018-09-17T20:00:21.075Z,7.10
2018-09-17T20:02:49.148Z,6.53
2018-09-17T20:05:22.643Z,6.73
2018-09-17T20:07:50.710Z,6.87
2018-09-17T20:10:18.866Z,6.80
2018-09-17T20:12:46.915Z,6.70
2018-09-17T20:15:15.016Z,7.33
2018-09-17T20:17:43.128Z,7.33
2018-09-17T20:20:11.291Z,6.60
2018-09-17T20:22:39.538Z,6.40
2018-09-17T20:25:08.074Z,6.40
2018-09-17T20:27:36.549Z,6.53
2018-09-17T20:30:04.879Z,6.20
2018-09-17T20:32:33.068Z,6.30
2018-09-17T20:35:01.181Z,5.43
2018-09-17T20:37:29.338Z,6.33
2018-09-17T20:39:57.501Z,6.50
2018-09-17T20:42:25.676Z,6.60
2018-09-17T20:44:53.836Z,6.53
2018-09-17T20:47:22.105Z,6.33
2018-09-17T20:49:50.310Z,6.53
2018-09-17T20:52:18.420Z,6.50
2018-09-17T20:54:46.593Z,6.40
2018-09-17T20:57:15.000Z,6.67
2018-09-17T20:59:46.984Z,6.73
2018-09-17T21:02:15.138Z,7.47
2018-09-17T21:04:43.318Z,7.63
2018-09-17T21:07:12.563Z,7.90
2018-09-17T21:09:40.841Z,7.30
2018-09-17T21:12:09.066Z,7.73
2018-09-17T21:14:37.168Z,6.40
2018-09-17T21:17:06.105Z,7.10
2018-09-17T21:19:34.340Z,6.80
2018-09-17T21:22:02.449Z,7.13
2018-09-17T21:24:30.542Z,6.87
2018-09-17T21:26:58.637Z,7.27
2018-09-17T21:29:26.696Z,7.17
2018-09-17T21:31:54.786Z,7.07
2018-09-17T21:34:22.921Z,7.30
2018-09-17T21:36:51.044Z,7.10
2018-09-17T21:39:19.077Z,6.93
2018-09-17T21:41:47.189Z,7.10
2018-09-17T21:44:15.267Z,7.50
2018-09-17T21:46:43.357Z,8.00
2018-09-17T21:49:11.486Z,7.30
2018-09-17T21:51:39.566Z,6.93
2018-09-17T21:54:07.673Z,6.73
2018-09-17T21:56:35.764Z,7.37
2018-09-17T21:59:03.846Z,6.60
2018-09-17T22:01:31.936Z,6.07
2018-09-17T22:04:00.012Z,6.07
2018-09-17T22:06:28.120Z,6.63
2018-09-17T22:08:56.193Z,6.37
2018-09-17T22:11:24.267Z,6.93
2018-09-17T22:13:52.369Z,6.90
2018-09-17T22:16:20.452Z,7.37
2018-09-17T22:18:48.544Z,7.40
2018-09-17T22:21:16.656Z,6.80
2018-09-17T22:23:44.728Z,6.53
2018-09-17T22:26:12.845Z,6.67
2018-09-17T22:28:40.931Z,5.97
2018-09-17T22:31:09.021Z,6.83
2018-09-17T22:33:37.099Z,6.67
2018-09-17T22:36:05.224Z,6.20
2018-09-17T22:38:33.305Z,6.50
2018-09-17T22:41:01.376Z,6.10
2018-09-17T22:43:29.459Z,6.63
2018-09-17T22:45:57.532Z,6.33
2018-09-17T22:48:25.617Z,6.40
2018-09-17T22:50:53.688Z,5.70
2018-09-17T22:53:21.787Z,6.50
2018-09-17T22:55:49.915Z,6.50
2018-09-17T22:58:17.993Z,5.90
2018-09-17T23:00:46.099Z,20.73
2018-09-17T23:03:14.195Z,12.40
2018-09-17T23:05:42.452Z,7.87
2018-09-17T23:08:10.571Z,6.33
2018-09-17T23:10:38.628Z,6.57
2018-09-17T23:13:06.691Z,6.03
2018-09-17T23:15:34.818Z,6.17
2018-09-17T23:18:02.891Z,6.13
2018-09-17T23:20:30.978Z,6.43
2018-09-17T23:22:59.072Z,6.43
2018-09-17T23:25:27.166Z,5.73
2018-09-17T23:27:55.271Z,6.00
2018-09-17T23:30:23.406Z,6.03
2018-09-17T23:32:52.509Z,5.73
2018-09-17T23:35:21.444Z,6.67
2018-09-17T23:37:49.519Z,6.57
2018-09-17T23:40:17.604Z,6.43
2018-09-17T23:42:45.726Z,5.63
2018-09-17T23:45:13.800Z,5.60
2018-09-17T23:47:41.881Z,6.97
2018-09-17T23:50:09.980Z,6.30
2018-09-17T23:52:38.048Z,6.43
2018-09-17T23:55:06.479Z,6.53
2018-09-17T23:57:34.544Z,5.47
